Time;durP1;ratioP1;P1;durP2;ratioP2;P2;SDS_P1;SDS_P2;PMS_P1;PMS_P2;Temp;Humidity;BMP_temperature;BMP_pressure;BME280_temperature;BME280_humidity;BME280_pressure;Samples;Min_cycle;Max_cycle;Signal;HPM_P1;HPM_P2
2022/01/28 00:00:37;;;;;;;11.23;7.30;;;2.90;99.90;;;2.06;100.00;98398.94;5004053;28;20084;-45
2022/01/28 00:05:29;;;;;;;12.25;7.38;;;2.90;99.90;;;2.08;100.00;98403.34;5014821;28;20029;-45
2022/01/28 00:07:56;;;;;;;12.52;7.32;;;3.00;99.90;;;2.08;100.00;98387.72;5003609;28;20037;-46
2022/01/28 00:10:24;;;;;;;10.00;6.35;;;3.00;99.90;;;2.08;100.00;98392.94;5006475;28;20555;-45
2022/01/28 00:13:18;;;;;;;11.65;7.07;;;2.90;99.90;;;2.05;100.00;98395.47;5009371;28;20472;-43
2022/01/28 00:39:45;;;;;;;8.18;5.45;;;3.00;99.90;;;2.15;100.00;98417.28;5009720;28;20053;-43
2022/01/28 00:42:11;;;;;;;9.30;6.05;;;3.00;99.90;;;2.18;100.00;98422.53;5013050;28;20037;-44
2022/01/28 00:44:37;;;;;;;9.43;5.32;;;3.00;99.90;;;2.15;100.00;98417.28;5011434;28;20037;-46
2022/01/28 00:47:03;;;;;;;9.50;5.55;;;3.00;99.90;;;2.16;100.00;98410.38;5009822;28;20176;-47
2022/01/28 00:49:29;;;;;;;8.45;4.88;;;3.00;99.90;;;2.35;100.00;98424.47;5012883;28;20035;-47
2022/01/28 00:51:55;;;;;;;8.20;4.93;;;3.10;99.90;;;2.38;100.00;98412.34;5010056;28;20034;-47
2022/01/28 00:54:21;;;;;;;8.43;4.80;;;3.20;99.90;;;2.14;100.00;98383.44;5012784;28;20039;-45
2022/01/28 00:56:47;;;;;;;8.95;4.65;;;3.20;99.90;;;2.18;100.00;98393.03;5017874;28;20029;-45
2022/01/28 00:59:13;;;;;;;8.48;5.13;;;3.20;99.90;;;2.28;100.00;98411.38;5014886;28;20109;-43
2022/01/28 01:01:39;;;;;;;8.82;4.82;;;3.10;99.90;;;2.23;100.00;98399.16;5012065;28;20033;-45
2022/01/28 01:04:05;;;;;;;9.95;4.47;;;3.10;99.90;;;2.32;100.00;98414.91;5012740;28;20123;-47
2022/01/28 01:06:31;;;;;;;8.68;4.90;;;3.20;99.90;;;2.26;100.00;98410.50;5007516;28;20030;-46
2022/01/28 01:08:57;;;;;;;7.78;4.85;;;3.10;99.90;;;2.21;100.00;98403.50;5010900;28;20045;-47
2022/01/28 01:11:24;;;;;;;9.02;4.90;;;3.10;99.90;;;2.22;100.00;98421.69;5011928;28;20037;-45
2022/01/28 01:13:51;;;;;;;8.48;4.28;;;3.10;99.90;;;2.20;100.00;98422.56;5009132;28;20400;-45
2022/01/28 01:16:24;;;;;;;6.05;4.65;;;3.00;99.90;;;2.12;100.00;98422.47;5028186;28;20479;-44
2022/01/28 01:18:56;;;;;;;9.18;5.28;;;3.00;99.90;;;2.11;100.00;98425.91;5012656;28;20068;-43
2022/01/28 01:21:27;;;;;;;7.93;4.60;;;3.00;99.90;;;2.06;100.00;98424.97;5017137;28;20029;-45
2022/01/28 01:23:55;;;;;;;7.57;4.93;;;2.90;99.90;;;2.06;100.00;98431.06;5009100;28;20033;-46
2022/01/28 01:26:37;;;;;;;6.63;4.65;;;2.90;99.90;;;2.07;100.00;98426.72;5010574;28;20510;-43
2022/01/28 01:29:07;;;;;;;9.80;5.53;;;2.90;99.90;;;1.91;100.00;98429.09;5014458;28;20040;-45
2022/01/28 01:31:35;;;;;;;9.70;5.43;;;2.80;99.90;;;1.71;100.00;98426.22;5011545;28;20037;-42
2022/01/28 01:34:21;;;;;;;9.32;5.72;;;2.60;99.90;;;1.64;100.00;98426.97;5011253;28;20029;-45
2022/01/28 01:36:48;;;;;;;8.75;5.57;;;2.50;99.90;;;1.56;100.00;98412.97;5012624;28;20425;-47
2022/01/28 01:39:20;;;;;;;10.45;5.25;;;2.40;99.90;;;1.50;100.00;98426.78;5013296;28;20553;-46
2022/01/28 01:41:53;;;;;;;;;;;2.30;99.90;;;1.39;100.00;98417.94;5011548;28;20089;-47
2022/01/28 01:44:36;;;;;;;8.70;5.47;;;2.20;99.90;;;1.28;100.00;98429.91;5013687;28;19931;-44
2022/01/28 01:52:38;;;;;;;11.13;5.57;;;1.90;99.90;;;1.03;100.00;98423.41;5011271;28;19932;-45
2022/01/28 01:55:06;;;;;;;11.93;5.22;;;1.90;99.90;;;0.94;100.00;98412.00;5006737;28;20300;-45
2022/01/28 01:57:33;;;;;;;10.00;5.88;;;1.80;99.90;;;1.05;100.00;98419.09;5005682;28;20033;-46
2022/01/28 01:59:59;;;;;;;8.82;5.70;;;1.80;99.90;;;0.95;100.00;98438.84;5010660;28;20025;-47
2022/01/28 02:02:24;;;;;;;9.50;5.88;;;1.80;99.90;;;0.85;100.00;98448.19;5010534;28;20060;-45
2022/01/28 02:04:50;;;;;;;8.13;5.47;;;1.70;99.90;;;0.78;100.00;98459.31;5013960;28;20026;-42
2022/01/28 02:07:17;;;;;;;12.77;5.55;;;1.60;99.90;;;0.75;100.00;98469.63;5009456;28;20483;-47
2022/01/28 02:09:42;;;;;;;10.98;5.88;;;1.60;99.90;;;0.70;100.00;98464.38;5011041;28;20063;-45
2022/01/28 02:12:09;;;;;;;8.77;6.03;;;1.60;99.90;;;0.64;100.00;98442.59;5009614;28;20156;-47
2022/01/28 02:14:35;;;;;;;8.43;5.88;;;1.60;99.90;;;0.69;100.00;98470.41;5011282;28;20032;-45
2022/01/28 02:17:03;;;;;;;12.98;6.03;;;1.50;99.90;;;0.68;100.00;98481.66;5011541;28;20032;-45
2022/01/28 02:19:29;;;;;;;11.95;6.60;;;1.50;99.90;;;0.76;100.00;98492.19;5015934;28;20046;-44
2022/01/28 02:21:54;;;;;;;10.43;5.70;;;1.60;99.90;;;0.74;100.00;98486.94;5006999;28;20036;-46
2022/01/28 02:24:37;;;;;;;11.70;5.88;;;1.50;99.90;;;0.66;100.00;98485.91;5003973;28;20106;-46
2022/01/28 02:27:03;;;;;;;10.88;6.18;;;1.50;99.90;;;0.61;100.00;98486.66;5010801;28;20029;-45
2022/01/28 02:29:32;;;;;;;8.63;5.93;;;1.50;99.90;;;0.52;100.00;98485.66;5009231;28;20053;-42
2022/01/28 02:32:00;;;;;;;12.15;5.93;;;1.40;99.90;;;0.44;100.00;98486.34;5011392;28;20037;-42
2022/01/28 02:34:26;;;;;;;10.20;5.95;;;1.40;99.90;;;0.54;100.00;98481.38;5021362;28;20022;-45
2022/01/28 02:36:52;;;;;;;10.32;6.63;;;1.30;99.90;;;0.64;100.00;98481.53;5011594;28;20033;-47
2022/01/28 02:39:18;;;;;;;11.27;5.55;;;1.40;99.90;;;0.54;100.00;98486.56;5010555;28;20515;-42
2022/01/28 02:41:48;;;;;;;12.80;6.13;;;1.40;99.90;;;0.56;100.00;98487.47;5012882;28;20139;-47
2022/01/28 02:44:40;;;;;;;9.30;6.03;;;1.40;99.90;;;0.59;100.00;98489.22;5011008;28;20439;-47
2022/01/28 02:47:11;;;;;;;8.48;5.50;;;1.40;99.90;;;0.52;100.00;98485.66;5013810;28;20033;-45
2022/01/28 02:49:37;;;;;;;8.73;5.47;;;1.40;99.90;;;0.61;100.00;98484.97;5010486;28;20022;-45
2022/01/28 02:52:04;;;;;;;8.65;5.45;;;1.40;99.90;;;0.54;100.00;98481.38;5013396;28;20114;-45
2022/01/28 02:54:33;;;;;;;11.35;5.40;;;1.50;99.90;;;0.55;100.00;98477.03;5011400;28;20034;-45
2022/01/28 02:57:03;;;;;;;9.82;5.40;;;1.40;99.90;;;0.57;100.00;98485.72;5012494;28;20033;-45
2022/01/28 02:59:29;;;;;;;8.15;5.25;;;1.40;99.90;;;0.37;100.00;98470.63;5015567;28;20124;-45
2022/01/28 03:01:55;;;;;;;9.95;5.90;;;1.30;99.90;;;0.54;100.00;98486.56;5021564;28;20110;-45
2022/01/28 03:04:54;;;;;;;11.60;5.78;;;1.40;99.90;;;0.51;100.00;98493.41;5024382;28;20119;-45
2022/01/28 03:07:07;;;;;;;10.45;5.90;;;1.40;99.90;;;0.51;100.00;98496.00;5017015;28;20037;-45
2022/01/28 03:12:17;;;;;;;8.73;5.30;;;1.40;99.90;;;0.60;100.00;98492.72;5023140;28;20038;-46
2022/01/28 03:20:18;;;;;;;8.20;5.72;;;1.50;99.90;;;0.69;100.00;98501.56;5010432;28;20052;-45
2022/01/28 03:22:44;;;;;;;9.35;5.35;;;1.50;99.90;;;0.56;100.00;98495.25;5014535;28;21344;-45
2022/01/28 03:25:11;;;;;;;11.10;5.15;;;1.50;99.90;;;0.67;100.00;98510.19;5006929;28;20037;-45
2022/01/28 03:27:52;;;;;;;10.32;5.68;;;1.50;99.90;;;0.59;100.00;98498.75;5004321;28;20331;-47
2022/01/28 03:30:18;;;;;;;10.73;6.28;;;1.50;99.90;;;0.60;100.00;98513.50;5012787;28;20038;-46
2022/01/28 03:32:44;;;;;;;11.65;5.60;;;1.50;99.90;;;0.62;100.00;98504.88;5009085;28;20059;-45
2022/01/28 03:35:11;;;;;;;11.93;5.75;;;1.50;99.90;;;0.82;100.00;98513.06;5011031;28;20628;-46
2022/01/28 03:37:37;;;;;;;9.68;6.05;;;1.60;99.90;;;0.88;100.00;98515.78;5011940;28;20040;-45
2022/01/28 03:40:07;;;;;;;7.93;5.45;;;1.70;99.90;;;0.92;100.00;98512.41;5011148;28;20041;-47
2022/01/28 03:42:37;;;;;;;9.35;5.88;;;1.80;99.90;;;1.05;100.00;98513.50;5008020;28;20034;-42
2022/01/28 03:45:07;;;;;;;12.63;6.40;;;1.90;99.90;;;1.18;100.00;98517.19;5012451;28;20029;-44
2022/01/28 03:47:32;;;;;;;10.68;6.05;;;2.00;99.90;;;1.18;100.00;98514.59;5015112;28;20029;-46
2022/01/28 03:49:58;;;;;;;11.02;5.95;;;2.10;99.90;;;1.25;100.00;98518.19;5009155;28;20339;-45
2022/01/28 03:52:24;;;;;;;9.80;5.30;;;2.20;99.90;;;1.33;100.00;98527.88;5009816;28;20038;-42
2022/01/28 03:54:50;;;;;;;11.75;5.70;;;2.20;99.90;;;1.41;100.00;98535.81;5010183;28;20048;-43
2022/01/28 03:57:15;;;;;;;12.15;6.47;;;2.30;99.90;;;1.64;100.00;98533.59;5010177;28;21485;-42
2022/01/28 03:59:41;;;;;;;10.07;5.57;;;2.40;99.90;;;1.59;100.00;98540.44;5010281;28;20045;-45
2022/01/28 04:02:07;;;;;;;11.02;5.63;;;2.50;99.90;;;1.58;100.00;98543.91;5010204;28;20053;-46
2022/01/28 04:05:36;;;;;;;11.85;6.00;;;2.40;99.90;;;1.59;100.00;98553.44;5010331;28;20527;-43
2022/01/28 04:12:57;;;;;;;13.85;5.68;;;2.20;99.90;;;1.40;100.00;98553.97;5010985;28;20117;-47
2022/01/28 04:15:36;;;;;;;11.98;5.95;;;2.20;99.90;;;1.27;100.00;98551.16;5009979;28;20041;-44
2022/01/28 04:18:03;;;;;;;12.35;5.80;;;2.10;99.90;;;1.24;100.00;98547.63;5015272;28;20029;-46
2022/01/28 04:20:30;;;;;;;9.43;5.32;;;2.10;99.90;;;1.17;100.00;98554.44;5010775;28;20055;-45
2022/01/28 04:22:57;;;;;;;10.50;5.90;;;2.00;99.90;;;1.12;100.00;98556.06;5009740;28;20606;-45
2022/01/28 04:25:23;;;;;;;8.60;5.45;;;2.00;99.90;;;0.95;100.00;98560.94;5017488;28;20025;-46
2022/01/28 04:27:49;;;;;;;9.68;5.35;;;1.90;99.90;;;0.93;100.00;98558.31;5018627;28;20032;-40
2022/01/28 04:30:14;;;;;;;10.98;6.10;;;1.80;99.90;;;0.93;100.00;98571.31;5015579;28;20081;-42
2022/01/28 04:32:40;;;;;;;10.32;5.38;;;1.70;99.90;;;0.79;100.00;98569.25;5022980;28;20415;-46
2022/01/28 04:35:07;;;;;;;10.60;6.13;;;1.70;99.90;;;0.69;100.00;98573.41;5018189;28;20033;-41
2022/01/28 04:40:10;;;;;;;9.82;5.88;;;1.60;99.90;;;0.74;100.00;98592.56;5015157;28;20200;-44
2022/01/28 04:42:55;;;;;;;13.30;5.80;;;1.60;99.90;;;0.72;100.00;98602.91;5011531;28;20145;-46
2022/01/28 04:45:33;;;;;;;10.73;5.95;;;1.60;99.90;;;0.74;100.00;98606.41;5012905;28;20062;-45
2022/01/28 04:48:15;;;;;;;11.05;5.65;;;1.50;99.90;;;0.75;100.00;98615.97;5015589;28;20037;-44
2022/01/28 04:51:01;;;;;;;11.35;6.22;;;1.60;99.90;;;0.90;100.00;98622.31;5012655;28;20512;-45
2022/01/28 05:07:04;;;;;;;10.38;5.75;;;1.60;99.90;;;0.69;100.00;98621.00;5024958;28;20117;-47
2022/01/28 05:10:04;;;;;;;10.90;5.63;;;1.60;99.90;;;0.64;100.00;98635.59;5029560;28;20039;-47
2022/01/28 05:25:47;;;;;;;14.07;7.03;;;1.40;99.90;;;0.49;100.00;98628.34;5022999;28;20573;-45
2022/01/28 05:28:17;;;;;;;10.15;6.43;;;1.30;99.90;;;0.50;100.00;98626.63;5025288;28;20046;-46
2022/01/28 05:30:43;;;;;;;13.13;6.88;;;1.30;99.90;;;0.46;100.00;98630.88;5014858;28;20071;-45
2022/01/28 05:33:09;;;;;;;17.25;6.93;;;1.30;99.90;;;0.42;100.00;98635.97;5023731;28;20045;-45
2022/01/28 05:35:34;;;;;;;14.32;7.03;;;1.30;99.90;;;0.45;100.00;98647.31;5013886;28;20060;-45
2022/01/28 05:38:00;;;;;;;19.05;7.28;;;1.30;99.90;;;0.25;100.00;98613.09;5025823;28;20331;-46
2022/01/28 05:40:26;;;;;;;13.80;7.43;;;1.30;99.90;;;0.35;100.00;98642.72;5021825;28;20094;-48
2022/01/28 05:42:51;;;;;;;14.10;7.78;;;1.20;99.90;;;0.34;100.00;98634.06;5019260;28;20052;-42
2022/01/28 05:45:17;;;;;;;13.18;7.60;;;1.20;99.90;;;0.37;100.00;98648.84;5017733;28;20042;-47
2022/01/28 05:47:43;;;;;;;15.63;7.65;;;1.20;99.90;;;0.38;100.00;98651.47;5023036;28;20031;-46
2022/01/28 05:50:09;;;;;;;16.77;7.65;;;1.20;99.90;;;0.38;100.00;98648.88;5020273;28;20132;-45
2022/01/28 05:52:35;;;;;;;14.35;6.63;;;1.20;99.90;;;0.48;100.00;98646.47;5022470;28;20116;-45
2022/01/28 05:55:01;;;;;;;14.90;7.07;;;1.30;99.90;;;0.49;100.00;98654.31;5026276;28;20133;-46
2022/01/28 05:57:26;;;;;;;16.27;7.32;;;1.30;99.90;;;0.38;100.00;98661.84;5026685;28;20080;-45
2022/01/28 05:59:52;;;;;;;18.23;7.95;;;1.30;99.90;;;0.36;100.00;98662.66;5021762;28;20037;-46
2022/01/28 06:02:18;;;;;;;21.90;9.25;;;1.20;99.90;;;0.25;100.00;98667.59;5017273;28;20120;-45
2022/01/28 06:04:45;;;;;;;14.95;7.65;;;1.20;99.90;;;0.25;100.00;98671.88;5017462;28;20050;-44
2022/01/28 06:07:11;;;;;;;12.93;7.45;;;1.10;99.90;;;0.19;100.00;98672.63;5018646;28;20565;-46
2022/01/28 06:09:36;;;;;;;17.63;7.95;;;1.10;99.90;;;0.22;100.00;98679.63;5014650;28;20033;-45
2022/01/28 06:12:02;;;;;;;14.32;7.15;;;1.10;99.90;;;0.22;100.00;98685.69;5017236;28;20029;-45
2022/01/28 06:14:28;;;;;;;13.38;7.18;;;1.10;99.90;;;0.31;100.00;98687.63;5016220;28;20504;-47
2022/01/28 06:16:54;;;;;;;16.25;7.50;;;1.10;99.90;;;0.36;100.00;98693.81;5019146;28;20040;-45
2022/01/28 06:19:19;;;;;;;11.00;6.63;;;1.20;99.90;;;0.40;100.00;98686.97;5014279;28;20041;-43
2022/01/28 06:21:45;;;;;;;11.25;6.45;;;1.20;99.90;;;0.33;100.00;98684.22;5018540;28;20032;-45
2022/01/28 06:24:11;;;;;;;13.68;6.22;;;1.20;99.90;;;0.29;100.00;98691.91;5018929;28;20029;-44
2022/01/28 06:26:37;;;;;;;14.25;5.88;;;1.20;99.90;;;0.29;100.00;98705.75;5016669;28;20061;-45
2022/01/28 06:29:03;;;;;;;11.02;6.30;;;1.20;99.90;;;0.39;100.00;98704.25;5015642;28;20084;-45
2022/01/28 06:31:28;;;;;;;12.23;6.97;;;1.20;99.90;;;0.39;100.00;98717.22;5014782;28;20041;-45
2022/01/28 06:33:54;;;;;;;14.73;6.95;;;1.20;99.90;;;0.34;100.00;98716.22;5020372;28;20026;-41
2022/01/28 06:36:21;;;;;;;14.45;6.85;;;1.20;99.90;;;0.36;100.00;98724.94;5017728;28;20068;-43
2022/01/28 06:38:48;;;;;;;15.07;6.88;;;1.20;99.90;;;0.42;100.00;98739.78;5019965;28;20062;-45
2022/01/28 06:41:14;;;;;;;15.30;7.30;;;1.20;99.90;;;0.38;100.00;98757.88;5016506;28;20120;-42
2022/01/28 06:43:40;;;;;;;12.32;6.95;;;1.20;99.90;;;0.34;100.00;98756.06;5018812;28;20132;-45
2022/01/28 06:46:06;;;;;;;13.13;7.22;;;1.20;99.90;;;0.23;100.00;98757.47;5015508;28;20057;-46
2022/01/28 06:48:32;;;;;;;15.57;7.55;;;1.10;99.90;;;0.27;100.00;98758.44;5014833;28;20460;-47
2022/01/28 06:50:58;;;;;;;18.77;8.25;;;1.20;99.90;;;0.26;100.00;98760.16;5013955;28;20129;-45
2022/01/28 06:53:23;;;;;;;15.43;8.30;;;1.10;99.90;;;0.26;100.00;98762.75;5017832;28;20030;-44
2022/01/28 06:55:49;;;;;;;15.25;8.07;;;1.10;99.90;;;0.09;100.00;98738.97;5018771;28;20034;-43
2022/01/28 06:58:15;;;;;;;19.73;8.60;;;1.10;99.90;;;0.17;100.00;98758.19;5019449;28;20120;-44
2022/01/28 07:00:41;;;;;;;13.30;7.95;;;1.00;99.90;;;0.31;100.00;98765.47;5017592;28;20400;-42
2022/01/28 07:03:08;;;;;;;15.90;8.48;;;1.10;99.90;;;0.34;100.00;98765.53;5011900;28;20277;-44
2022/01/28 07:05:34;;;;;;;17.23;8.82;;;1.20;99.90;;;0.30;100.00;98764.59;5016852;28;20415;-44
2022/01/28 07:08:00;;;;;;;15.60;8.68;;;1.20;99.90;;;0.29;100.00;98765.44;5016195;28;20029;-46
2022/01/28 07:10:26;;;;;;;14.73;8.05;;;1.20;99.90;;;0.25;100.00;98765.31;5020490;28;20046;-46
2022/01/28 07:12:54;;;;;;;16.83;7.85;;;1.20;99.90;;;0.28;100.00;98770.59;5016785;28;20060;-45
2022/01/28 07:15:23;;;;;;;14.32;7.18;;;1.20;99.90;;;0.34;100.00;98747.38;5015933;28;20344;-46
2022/01/28 07:17:49;;;;;;;12.20;7.38;;;1.20;99.90;;;0.31;100.00;98743.00;5018328;28;20140;-47
2022/01/28 07:20:17;;;;;;;11.55;6.53;;;1.20;99.90;;;0.42;100.00;98757.97;5016778;28;20291;-45
2022/01/28 07:22:43;;;;;;;14.38;7.05;;;1.30;99.90;;;0.45;100.00;98758.03;5013475;28;20029;-44
2022/01/28 07:25:09;;;;;;;13.88;6.13;;;1.30;99.90;;;0.51;100.00;98768.56;5011613;28;20032;-43
2022/01/28 07:27:34;;;;;;;13.77;6.00;;;1.40;99.90;;;0.61;100.00;98780.06;5020263;28;20034;-46
2022/01/28 07:30:00;;;;;;;14.30;6.30;;;1.40;99.90;;;0.60;100.00;98761.00;5019955;28;20368;-41
2022/01/28 07:32:26;;;;;;;13.02;6.75;;;1.50;99.90;;;0.72;100.00;98765.63;5023595;28;20034;-43
2022/01/28 07:34:52;;;;;;;14.45;6.97;;;1.50;99.90;;;0.73;100.00;98782.97;5012668;28;20025;-47
2022/01/28 07:37:18;;;;;;;11.20;6.00;;;1.60;99.90;;;0.79;100.00;98784.81;5020189;28;20033;-43
2022/01/28 07:39:45;;;;;;;14.93;6.68;;;1.60;99.90;;;0.87;100.00;98793.69;5022353;28;20022;-42
2022/01/28 07:42:10;;;;;;;12.95;6.47;;;1.70;99.90;;;1.02;100.00;98793.16;5021430;28;20060;-46
2022/01/28 07:44:36;;;;;;;14.80;6.75;;;1.90;99.90;;;1.13;100.00;98795.19;5019185;28;20021;-44
2022/01/28 07:47:03;;;;;;;12.95;6.03;;;2.00;99.90;;;1.27;100.00;98800.66;5019649;28;20044;-45
2022/01/28 07:49:28;;;;;;;12.13;6.03;;;2.20;99.90;;;1.35;100.00;98803.47;5016598;28;20112;-45
2022/01/28 07:51:54;;;;;;;8.85;5.38;;;2.20;99.90;;;1.41;100.00;98800.09;5013393;28;20092;-45
2022/01/28 07:54:20;;;;;;;12.57;6.38;;;2.30;99.90;;;1.48;100.00;98794.19;5016174;28;20041;-44
2022/01/28 07:56:47;;;;;;;11.93;6.10;;;2.40;99.90;;;1.62;100.00;98797.09;5014424;28;20049;-45
2022/01/28 07:59:13;;;;;;;11.85;6.40;;;2.50;99.90;;;1.70;100.00;98799.00;5014413;28;20029;-47
2022/01/28 08:01:39;;;;;;;11.32;6.07;;;2.60;99.90;;;1.76;100.00;98797.38;5013482;28;20565;-45
2022/01/28 08:04:04;;;;;;;11.05;6.35;;;2.60;99.90;;;1.83;100.00;98805.34;5013503;28;20041;-46
2022/01/28 08:06:40;;;;;;;13.93;6.18;;;2.70;99.90;;;1.87;100.00;98827.09;5014745;28;20122;-44
2022/01/28 08:09:06;;;;;;;10.07;5.60;;;2.80;99.90;;;1.91;100.00;98818.50;5014238;28;20025;-41
2022/01/28 08:11:34;;;;;;;10.60;5.60;;;2.80;99.90;;;1.94;100.00;98818.56;5012005;28;20038;-45
2022/01/28 08:13:59;;;;;;;11.68;5.57;;;2.90;99.90;;;1.96;100.00;98813.41;5013971;28;20029;-45
2022/01/28 08:16:25;;;;;;;12.85;4.55;;;2.90;99.90;;;2.04;100.00;98810.06;5016140;28;20577;-43
2022/01/28 08:18:51;;;;;;;9.65;4.75;;;2.90;99.90;;;1.96;100.00;98819.47;5016886;28;20033;-43
2022/01/28 08:21:17;;;;;;;10.70;5.07;;;2.90;99.90;;;2.05;100.00;98834.41;5010746;28;20116;-46
2022/01/28 08:23:43;;;;;;;12.10;4.57;;;2.90;99.90;;;2.13;100.00;98842.34;5014101;28;20030;-45
2022/01/28 08:26:11;;;;;;;8.63;4.35;;;3.00;99.90;;;2.22;100.00;98837.31;5018942;28;20039;-41
2022/01/28 08:28:41;;;;;;;9.43;4.32;;;3.10;99.90;;;2.27;100.00;98838.28;5013582;28;20034;-45
2022/01/28 08:31:08;;;;;;;8.90;4.65;;;3.20;99.90;;;2.37;100.00;98848.03;5014174;28;20036;-45
2022/01/28 08:33:33;;;;;;;9.55;4.32;;;3.30;99.90;;;2.46;100.00;98834.31;5018250;28;20041;-44
2022/01/28 08:36:01;;;;;;;9.40;4.15;;;3.40;99.90;;;2.52;100.00;98847.44;5018111;28;20033;-45
2022/01/28 08:38:31;;;;;;;11.05;3.60;;;3.40;99.90;;;2.58;100.00;98857.97;5019847;28;20041;-47
2022/01/28 08:40:59;;;;;;;9.77;4.20;;;3.50;99.90;;;2.69;100.00;98860.75;5020700;28;20037;-42
2022/01/28 08:43:26;;;;;;;8.20;3.92;;;3.50;99.90;;;2.76;100.00;98866.97;5021203;28;20042;-45
2022/01/28 08:45:52;;;;;;;9.20;3.90;;;3.60;99.90;;;2.92;100.00;98866.38;5020912;28;20343;-48
2022/01/28 08:48:17;;;;;;;8.63;3.55;;;3.70;99.90;;;2.98;100.00;98870.81;5013485;28;20065;-46
2022/01/28 08:50:43;;;;;;;8.00;3.63;;;3.80;99.90;;;3.05;100.00;98873.56;5017517;28;20033;-46
2022/01/28 08:53:10;;;;;;;7.25;3.15;;;3.90;99.90;;;3.14;100.00;98877.16;5019894;28;20033;-46
2022/01/28 08:55:38;;;;;;;9.20;3.50;;;4.00;99.90;;;3.08;100.00;98872.72;5017713;28;20068;-44
2022/01/28 08:58:07;;;;;;;4.22;2.95;;;4.00;99.90;;;3.10;100.00;98875.38;5013375;28;20147;-46
2022/01/28 09:00:33;;;;;;;9.50;3.35;;;4.00;99.90;;;3.12;100.00;98874.53;5016103;28;20022;-43
2022/01/28 09:02:59;;;;;;;13.55;4.18;;;4.00;99.90;;;3.09;100.00;98869.28;5020072;28;20488;-45
2022/01/28 09:05:25;;;;;;;7.03;3.20;;;4.00;99.90;;;3.02;100.00;98867.44;5014556;28;20033;-45
2022/01/28 09:07:51;;;;;;;7.00;3.40;;;4.00;99.90;;;3.05;100.00;98868.34;5013928;28;20067;-46
2022/01/28 09:10:18;;;;;;;7.97;3.35;;;4.00;99.90;;;3.13;100.00;98871.06;5019970;28;20025;-45
2022/01/28 09:15:25;;;;;;;9.07;3.72;;;4.10;99.90;;;3.34;100.00;98875.75;5021560;28;20041;-45
2022/01/28 09:17:51;;;;;;;8.73;3.40;;;4.20;99.90;;;3.32;100.00;98877.47;5021734;28;20435;-43
2022/01/28 09:20:17;;;;;;;5.63;3.20;;;4.20;99.90;;;3.41;100.00;98881.94;5018433;28;20041;-45
2022/01/28 09:22:42;;;;;;;6.90;3.40;;;4.30;99.90;;;3.47;99.34;98882.03;5018749;28;20034;-46
2022/01/28 09:25:09;;;;;;;9.77;3.17;;;4.30;99.90;;;3.44;98.11;98869.81;5015926;28;20083;-45
2022/01/28 09:27:34;;;;;;;8.98;3.47;;;4.30;99.90;;;3.49;98.47;98875.13;5021183;28;20068;-45
2022/01/28 09:30:00;;;;;;;5.65;3.17;;;4.40;99.90;;;3.54;100.00;98878.66;5015499;28;20060;-48
2022/01/28 09:32:26;;;;;;;8.77;2.90;;;4.50;99.90;;;3.72;96.47;98877.19;5015561;28;20045;-47
2022/01/28 09:34:52;;;;;;;8.40;3.40;;;4.60;99.90;;;3.72;95.48;98878.06;5010364;28;20167;-46
2022/01/28 09:37:17;;;;;;;9.73;3.35;;;4.60;99.90;;;3.82;96.44;98873.81;5023398;28;20066;-45
2022/01/28 09:39:45;;;;;;;7.28;2.83;;;4.70;99.90;;;3.92;97.75;98874.84;5021570;28;20060;-45
2022/01/28 09:42:15;;;;;;;8.88;2.80;;;4.80;99.90;;;4.07;98.32;98879.38;5019768;28;20516;-48
2022/01/28 09:44:42;;;;;;;7.95;2.88;;;4.90;99.90;;;4.02;97.54;98881.94;5021065;28;20063;-44
2022/01/28 09:47:10;;;;;;;10.35;2.72;;;4.90;99.90;;;4.12;96.50;98883.81;5017576;28;20029;-43
2022/01/28 09:49:40;;;;;;;8.82;2.88;;;5.00;99.90;;;4.10;94.77;98869.84;5024004;28;20029;-44
2022/01/28 09:52:09;;;;;;;7.03;2.55;;;5.00;99.90;;;4.23;92.49;98880.44;5023901;28;20492;-45
2022/01/28 09:54:35;;;;;;;6.32;2.53;;;5.10;99.90;;;4.26;92.52;98885.72;5022981;28;20033;-43
2022/01/28 09:57:03;;;;;;;7.55;2.75;;;5.10;99.90;;;4.36;92.36;98888.47;5017936;28;20025;-46
2022/01/28 09:59:29;;;;;;;7.35;2.47;;;5.20;99.90;;;4.34;90.94;98897.13;5021801;28;20112;-44
2022/01/28 10:01:55;;;;;;;7.07;2.50;;;5.20;99.90;;;4.40;85.94;98903.31;5022303;28;20373;-43
2022/01/28 10:04:22;;;;;;;6.70;2.15;;;5.30;99.90;;;4.42;90.22;98894.63;5019641;28;20399;-41
2022/01/28 10:06:49;;;;;;;6.72;2.25;;;5.40;99.90;;;4.52;88.64;98899.06;5025588;28;20056;-46
2022/01/28 10:09:19;;;;;;;4.70;2.10;;;5.40;99.90;;;4.67;84.63;98904.47;5019668;28;20064;-45
2022/01/28 10:11:49;;;;;;;7.35;2.40;;;5.50;99.90;;;4.75;89.37;98908.03;5019536;28;20037;-46
2022/01/28 10:14:27;;;;;;;5.80;2.33;;;5.50;99.90;;;4.62;84.45;98916.63;5016082;28;20491;-47
2022/01/28 10:17:01;;;;;;;4.05;2.17;;;5.60;99.90;;;4.76;84.78;98911.53;5021404;28;20335;-45
2022/01/28 10:19:40;;;;;;;5.20;2.28;;;5.60;99.90;;;4.91;87.75;98905.59;5021054;28;20044;-46
2022/01/28 10:22:32;;;;;;;6.00;2.42;;;5.70;99.90;;;4.82;83.60;98898.53;5012775;28;20104;-47
2022/01/28 10:25:04;;;;;;;6.33;2.10;;;5.80;99.90;;;4.96;85.38;98896.91;5015986;28;20029;-45
2022/01/28 10:27:29;;;;;;;7.57;2.28;;;5.80;99.90;;;5.00;85.30;98899.56;5023236;28;20283;-45
2022/01/28 10:30:05;;;;;;;8.98;2.20;;;5.90;99.90;;;4.86;80.71;98899.44;5021788;28;20468;-47
2022/01/28 10:32:31;;;;;;;4.45;1.83;;;5.80;99.90;;;4.77;83.58;98887.13;5020223;28;20399;-44
2022/01/28 10:34:57;;;;;;;3.65;1.98;;;5.60;99.90;;;4.59;87.21;98890.44;5024548;28;20032;-45
2022/01/28 10:37:27;;;;;;;6.13;2.10;;;5.40;99.90;;;4.34;85.20;98908.47;5020196;28;20417;-45
2022/01/28 10:40:09;;;;;;;7.45;2.10;;;5.20;99.90;;;4.29;85.67;98889.25;5016006;28;20588;-46
2022/01/28 10:42:36;;;;;;;6.88;2.05;;;5.20;99.90;;;4.29;87.16;98885.72;5012499;28;20533;-48
2022/01/28 10:45:04;;;;;;;8.20;2.40;;;5.10;99.90;;;4.26;84.50;98883.09;5018833;28;20030;-46
2022/01/28 10:47:49;;;;;;;11.63;2.33;;;5.10;99.90;;;4.27;87.38;98877.91;5018645;28;20037;-45
2022/01/28 10:50:26;;;;;;;7.18;2.17;;;5.10;99.90;;;4.32;87.21;98870.97;5018644;28;20025;-46
2022/01/28 10:53:13;;;;;;;4.80;2.10;;;5.10;99.90;;;4.36;83.57;98883.25;5050659;22;20489;-36
2022/01/28 10:55:50;;;;;;;4.43;1.85;;;5.30;99.90;;;4.52;84.78;98876.44;5062616;28;20615;-38
2022/01/28 10:58:18;;;;;;;5.18;1.88;;;5.40;99.90;;;4.71;82.21;98877.50;5060952;28;20074;-37
2022/01/28 11:00:47;;;;;;;6.75;1.83;;;5.60;99.90;;;4.80;80.65;98876.72;5063246;28;20097;-38
2022/01/28 11:03:25;;;;;;;8.00;1.95;;;5.70;99.90;;;4.96;80.01;98885.59;5051095;28;20020;-38
2022/01/28 11:05:58;;;;;;;6.70;1.65;;;5.80;99.90;;;5.09;79.82;98887.44;5039441;28;20017;-39
2022/01/28 11:08:27;;;;;;;7.30;2.35;;;6.00;99.90;;;5.18;78.69;98885.78;5043999;28;20394;-37
2022/01/28 11:10:53;;;;;;;9.85;1.85;;;6.00;99.90;;;5.15;81.74;98897.97;5041291;28;20059;-37
2022/01/28 11:13:19;;;;;;;8.52;2.05;;;6.00;99.90;;;5.15;83.04;98902.31;5048007;28;20025;-38
2022/01/28 11:15:46;;;;;;;7.40;1.98;;;6.00;99.90;;;4.97;78.20;98909.16;5044359;28;20391;-38
2022/01/28 11:18:12;;;;;;;4.80;1.75;;;5.90;99.90;;;4.84;77.94;98890.69;5040081;28;20444;-38
2022/01/28 11:20:49;;;;;;;5.32;1.58;;;5.80;99.90;;;4.66;78.54;98901.84;5040868;28;20032;-38
2022/01/28 11:23:34;;;;;;;5.88;1.52;;;5.60;99.90;;;4.66;78.23;98894.00;5044778;28;20111;-41
2022/01/28 11:26:40;;;;;;;3.47;1.42;;;5.50;99.90;;;4.86;81.60;98894.19;5038794;28;20075;-36
2022/01/28 11:29:20;;;;;;;7.93;2.03;;;5.70;99.90;;;5.15;78.23;98897.06;5040795;28;20378;-38
2022/01/28 11:31:51;;;;;;;9.63;2.17;;;6.00;99.90;;;5.06;79.02;98895.28;5041632;28;20040;-38
2022/01/28 11:34:25;;;;;;;6.47;1.60;;;6.00;99.90;;;5.07;73.91;98896.16;5044346;28;20459;-42
2022/01/28 11:36:56;;;;;;;7.10;1.35;;;6.00;99.90;;;5.00;74.03;98905.66;5043010;28;20450;-36
2022/01/28 11:39:38;;;;;;;8.13;1.70;;;6.00;99.90;;;5.12;74.31;98889.22;5044139;28;20087;-38
2022/01/28 11:42:17;;;;;;;5.90;1.50;;;6.00;99.90;;;5.34;76.62;98891.13;5039877;28;20514;-38
2022/01/28 11:44:59;;;;;;;8.43;1.50;;;6.20;99.90;;;5.45;75.15;98896.44;5039045;28;20041;-41
2022/01/28 11:47:35;;;;;;;8.98;1.95;;;6.30;99.90;;;5.46;74.33;98894.72;5032586;28;20037;-36
2022/01/28 11:50:11;;;;;;;8.25;1.90;;;6.40;99.90;;;5.48;73.90;98893.88;5036085;28;20036;-39